Avon, Indiana
Current Conditions -  °F | °C
As of 1:53 PM on Saturday 25 Oct 2014 (Local Time) from KEYE Reporting Station
Clear Clear  
Wind Chill: 72°   Ceiling: Unl
Heat Index: 72°   Visibility: 10mi
Dew Point: 53°   Wind: 8mph
Humidity: 51%   Direction: 300°WNW
Pressure: 29.95"   Gusts: NA
Location:  39.76°N, 86.4°W
Report Text: KEYE 251753Z AUTO 30007KT 10SM CLR 22/12 A2995 RMK AO2 SLP138 T02220117 10222 20128 56010 $
Loading
Personal Weather Stations






























Interactive Weather Map
Tropical Storm Tracking
New forecast layout! Learn more

10-Day Weather Forecast

Advertisements
Track Severe Weather on mobile